sensor_id;sensor_type;location;lat;lon;timestamp;temperature;humidity
20481;DHT22;10399;50.754;3.366;2022-12-15T00:00:01;-0.50;99.90
20481;DHT22;10399;50.754;3.366;2022-12-15T00:02:47;-0.60;99.90
20481;DHT22;10399;50.754;3.366;2022-12-15T00:05:33;-0.60;99.90
20481;DHT22;10399;50.754;3.366;2022-12-15T00:08:18;-0.80;99.90
20481;DHT22;10399;50.754;3.366;2022-12-15T00:11:04;-0.60;99.90
20481;DHT22;10399;50.754;3.366;2022-12-15T00:13:57;-0.60;99.90
20481;DHT22;10399;50.754;3.366;2022-12-15T00:16:44;-0.40;99.90
20481;DHT22;10399;50.754;3.366;2022-12-15T00:19:33;-0.20;99.90
20481;DHT22;10399;50.754;3.366;2022-12-15T00:22:18;-0.60;99.90
20481;DHT22;10399;50.754;3.366;2022-12-15T00:25:04;-0.60;99.90
20481;DHT22;10399;50.754;3.366;2022-12-15T00:27:55;-0.90;99.90
20481;DHT22;10399;50.754;3.366;2022-12-15T00:30:44;-0.80;99.90
20481;DHT22;10399;50.754;3.366;2022-12-15T00:33:30;-0.60;99.90
20481;DHT22;10399;50.754;3.366;2022-12-15T00:36:15;-0.40;99.90
20481;DHT22;10399;50.754;3.366;2022-12-15T00:39:01;-0.30;99.90
20481;DHT22;10399;50.754;3.366;2022-12-15T00:41:30;-0.60;99.90
20481;DHT22;10399;50.754;3.366;2022-12-15T00:43:57;-0.70;99.90
20481;DHT22;10399;50.754;3.366;2022-12-15T00:46:30;-0.90;99.90
20481;DHT22;10399;50.754;3.366;2022-12-15T00:49:15;-0.80;99.90
20481;DHT22;10399;50.754;3.366;2022-12-15T00:52:01;-0.80;99.90
20481;DHT22;10399;50.754;3.366;2022-12-15T00:54:47;-0.80;99.90
20481;DHT22;10399;50.754;3.366;2022-12-15T00:57:32;-0.80;99.90
20481;DHT22;10399;50.754;3.366;2022-12-15T01:00:19;-0.80;99.90
20481;DHT22;10399;50.754;3.366;2022-12-15T01:03:10;-0.70;99.90
20481;DHT22;10399;50.754;3.366;2022-12-15T01:05:56;-0.90;99.90
20481;DHT22;10399;50.754;3.366;2022-12-15T01:08:42;-1.10;99.90
20481;DHT22;10399;50.754;3.366;2022-12-15T01:11:28;-1.10;99.90
20481;DHT22;10399;50.754;3.366;2022-12-15T01:14:14;-1.10;99.90
20481;DHT22;10399;50.754;3.366;2022-12-15T01:16:59;-0.90;99.90
20481;DHT22;10399;50.754;3.366;2022-12-15T01:19:45;-1.10;99.90
20481;DHT22;10399;50.754;3.366;2022-12-15T01:22:30;-1.20;99.90
20481;DHT22;10399;50.754;3.366;2022-12-15T01:24:57;-1.30;99.90
20481;DHT22;10399;50.754;3.366;2022-12-15T01:27:24;-1.20;99.90
20481;DHT22;10399;50.754;3.366;2022-12-15T01:29:51;-1.30;99.90
20481;DHT22;10399;50.754;3.366;2022-12-15T01:32:18;-1.20;99.90
20481;DHT22;10399;50.754;3.366;2022-12-15T01:34:46;-0.70;99.90
20481;DHT22;10399;50.754;3.366;2022-12-15T01:37:13;-0.70;99.90
20481;DHT22;10399;50.754;3.366;2022-12-15T01:39:40;-0.90;99.90
20481;DHT22;10399;50.754;3.366;2022-12-15T01:42:29;-1.10;99.90
20481;DHT22;10399;50.754;3.366;2022-12-15T01:47:51;-1.10;99.90
20481;DHT22;10399;50.754;3.366;2022-12-15T01:50:20;-1.10;99.90
20481;DHT22;10399;50.754;3.366;2022-12-15T01:52:49;-1.20;99.90
20481;DHT22;10399;50.754;3.366;2022-12-15T01:55:18;-1.20;99.90
20481;DHT22;10399;50.754;3.366;2022-12-15T01:57:46;-1.30;99.90
20481;DHT22;10399;50.754;3.366;2022-12-15T02:00:14;-1.40;99.90
20481;DHT22;10399;50.754;3.366;2022-12-15T02:02:41;-1.30;99.90
20481;DHT22;10399;50.754;3.366;2022-12-15T02:05:09;-1.20;99.90
20481;DHT22;10399;50.754;3.366;2022-12-15T02:07:37;-0.80;99.90
20481;DHT22;10399;50.754;3.366;2022-12-15T02:10:06;-1.00;99.90
20481;DHT22;10399;50.754;3.366;2022-12-15T02:15:48;-0.80;99.90
20481;DHT22;10399;50.754;3.366;2022-12-15T02:18:34;-1.00;99.90
20481;DHT22;10399;50.754;3.366;2022-12-15T02:21:16;-1.20;99.90
20481;DHT22;10399;50.754;3.366;2022-12-15T02:24:08;-1.20;99.90
20481;DHT22;10399;50.754;3.366;2022-12-15T02:30:05;-1.40;99.90
20481;DHT22;10399;50.754;3.366;2022-12-15T02:35:30;-0.70;99.90
20481;DHT22;10399;50.754;3.366;2022-12-15T02:37:58;-0.90;99.90
20481;DHT22;10399;50.754;3.366;2022-12-15T02:40:26;-1.10;99.90
20481;DHT22;10399;50.754;3.366;2022-12-15T02:42:55;-1.30;99.90
20481;DHT22;10399;50.754;3.366;2022-12-15T02:45:33;-1.30;99.90
20481;DHT22;10399;50.754;3.366;2022-12-15T02:48:22;-1.20;99.90
20481;DHT22;10399;50.754;3.366;2022-12-15T02:51:10;-0.90;99.90
20481;DHT22;10399;50.754;3.366;2022-12-15T02:54:03;-1.00;99.90
20481;DHT22;10399;50.754;3.366;2022-12-15T02:59:18;-1.40;99.90
20481;DHT22;10399;50.754;3.366;2022-12-15T03:01:56;-1.40;99.90
20481;DHT22;10399;50.754;3.366;2022-12-15T03:04:24;-1.40;99.90
20481;DHT22;10399;50.754;3.366;2022-12-15T03:06:57;-1.40;99.90
20481;DHT22;10399;50.754;3.366;2022-12-15T03:09:27;-1.40;99.90
20481;DHT22;10399;50.754;3.366;2022-12-15T03:11:54;-1.40;99.90
20481;DHT22;10399;50.754;3.366;2022-12-15T03:14:22;-1.40;99.90
20481;DHT22;10399;50.754;3.366;2022-12-15T03:16:52;-1.60;99.90
20481;DHT22;10399;50.754;3.366;2022-12-15T03:19:20;-1.50;99.90
20481;DHT22;10399;50.754;3.366;2022-12-15T03:21:48;-1.40;99.90
20481;DHT22;10399;50.754;3.366;2022-12-15T03:24:15;-1.00;99.90
20481;DHT22;10399;50.754;3.366;2022-12-15T03:26:42;-0.70;99.90
20481;DHT22;10399;50.754;3.366;2022-12-15T03:29:09;-0.70;99.90
20481;DHT22;10399;50.754;3.366;2022-12-15T03:31:37;-1.10;99.90
20481;DHT22;10399;50.754;3.366;2022-12-15T03:34:07;-1.30;99.90
20481;DHT22;10399;50.754;3.366;2022-12-15T03:36:34;-1.30;99.90
20481;DHT22;10399;50.754;3.366;2022-12-15T03:39:02;-1.50;99.90
20481;DHT22;10399;50.754;3.366;2022-12-15T03:41:29;-1.50;99.90
20481;DHT22;10399;50.754;3.366;2022-12-15T03:43:56;-1.70;99.90
20481;DHT22;10399;50.754;3.366;2022-12-15T03:46:23;-1.80;99.90
20481;DHT22;10399;50.754;3.366;2022-12-15T03:48:50;-1.70;99.90
20481;DHT22;10399;50.754;3.366;2022-12-15T03:51:18;-1.60;99.90
20481;DHT22;10399;50.754;3.366;2022-12-15T03:53:45;-1.70;99.90
20481;DHT22;10399;50.754;3.366;2022-12-15T03:56:16;-1.70;99.90
20481;DHT22;10399;50.754;3.366;2022-12-15T03:58:43;-1.80;99.90
20481;DHT22;10399;50.754;3.366;2022-12-15T04:03:46;-1.70;99.90
20481;DHT22;10399;50.754;3.366;2022-12-15T04:06:14;-1.20;99.90
20481;DHT22;10399;50.754;3.366;2022-12-15T04:08:41;-1.00;99.90
20481;DHT22;10399;50.754;3.366;2022-12-15T04:11:08;-0.70;99.90
20481;DHT22;10399;50.754;3.366;2022-12-15T04:13:35;-0.90;99.90
20481;DHT22;10399;50.754;3.366;2022-12-15T04:16:03;-1.40;99.90
20481;DHT22;10399;50.754;3.366;2022-12-15T04:18:31;-1.40;99.90
20481;DHT22;10399;50.754;3.366;2022-12-15T04:20:59;-1.50;99.90
20481;DHT22;10399;50.754;3.366;2022-12-15T04:23:26;-1.80;99.90
20481;DHT22;10399;50.754;3.366;2022-12-15T04:25:53;-1.70;99.90
20481;DHT22;10399;50.754;3.366;2022-12-15T04:28:39;-1.70;99.90
20481;DHT22;10399;50.754;3.366;2022-12-15T04:31:29;-1.80;99.90
20481;DHT22;10399;50.754;3.366;2022-12-15T04:34:18;-1.90;99.90
20481;DHT22;10399;50.754;3.366;2022-12-15T04:37:12;-1.80;99.90
20481;DHT22;10399;50.754;3.366;2022-12-15T04:39:58;-1.80;99.90
20481;DHT22;10399;50.754;3.366;2022-12-15T04:42:45;-1.30;99.90
20481;DHT22;10399;50.754;3.366;2022-12-15T04:45:32;-1.10;99.90
20481;DHT22;10399;50.754;3.366;2022-12-15T04:48:18;-1.50;99.90
20481;DHT22;10399;50.754;3.366;2022-12-15T04:51:04;-1.80;99.90
20481;DHT22;10399;50.754;3.366;2022-12-15T04:53:52;-2.00;99.90
20481;DHT22;10399;50.754;3.366;2022-12-15T04:56:38;-2.00;99.90
20481;DHT22;10399;50.754;3.366;2022-12-15T04:59:24;-2.00;99.90
20481;DHT22;10399;50.754;3.366;2022-12-15T05:02:09;-1.60;99.90
20481;DHT22;10399;50.754;3.366;2022-12-15T05:04:55;-1.50;99.90
20481;DHT22;10399;50.754;3.366;2022-12-15T05:07:41;-1.60;99.90
20481;DHT22;10399;50.754;3.366;2022-12-15T05:10:30;-1.80;99.90
20481;DHT22;10399;50.754;3.366;2022-12-15T05:13:16;-1.70;99.90
20481;DHT22;10399;50.754;3.366;2022-12-15T05:16:04;-1.80;99.90
20481;DHT22;10399;50.754;3.366;2022-12-15T05:18:53;-2.00;99.90
20481;DHT22;10399;50.754;3.366;2022-12-15T05:21:38;-2.00;99.90
20481;DHT22;10399;50.754;3.366;2022-12-15T05:24:23;-1.90;99.90
20481;DHT22;10399;50.754;3.366;2022-12-15T05:27:09;-1.90;99.90
20481;DHT22;10399;50.754;3.366;2022-12-15T05:29:54;-1.90;99.90
20481;DHT22;10399;50.754;3.366;2022-12-15T05:32:40;-1.80;99.90
20481;DHT22;10399;50.754;3.366;2022-12-15T05:35:07;-1.70;99.90
20481;DHT22;10399;50.754;3.366;2022-12-15T05:37:34;-1.80;99.90
20481;DHT22;10399;50.754;3.366;2022-12-15T05:40:04;-1.60;99.90
20481;DHT22;10399;50.754;3.366;2022-12-15T05:42:32;-1.50;99.90
20481;DHT22;10399;50.754;3.366;2022-12-15T05:44:59;-1.50;99.90
20481;DHT22;10399;50.754;3.366;2022-12-15T05:47:26;-1.70;99.90
20481;DHT22;10399;50.754;3.366;2022-12-15T05:49:54;-1.60;99.90
20481;DHT22;10399;50.754;3.366;2022-12-15T05:52:21;-1.60;99.90
20481;DHT22;10399;50.754;3.366;2022-12-15T05:54:48;-1.60;99.90
20481;DHT22;10399;50.754;3.366;2022-12-15T05:57:22;-1.60;99.90
20481;DHT22;10399;50.754;3.366;2022-12-15T05:59:50;-1.60;99.90
20481;DHT22;10399;50.754;3.366;2022-12-15T06:02:16;-1.60;99.90
20481;DHT22;10399;50.754;3.366;2022-12-15T06:04:43;-1.40;99.90
20481;DHT22;10399;50.754;3.366;2022-12-15T06:07:11;-1.50;99.90
20481;DHT22;10399;50.754;3.366;2022-12-15T06:09:38;-1.60;99.90
20481;DHT22;10399;50.754;3.366;2022-12-15T06:12:05;-1.50;99.90
20481;DHT22;10399;50.754;3.366;2022-12-15T06:14:33;-1.50;99.90
20481;DHT22;10399;50.754;3.366;2022-12-15T06:17:02;-1.30;99.90
20481;DHT22;10399;50.754;3.366;2022-12-15T06:19:29;-1.10;99.90
20481;DHT22;10399;50.754;3.366;2022-12-15T06:21:56;-1.30;99.90
20481;DHT22;10399;50.754;3.366;2022-12-15T06:24:23;-1.40;99.90
20481;DHT22;10399;50.754;3.366;2022-12-15T06:26:51;-1.40;99.90
20481;DHT22;10399;50.754;3.366;2022-12-15T06:29:18;-1.50;99.90
20481;DHT22;10399;50.754;3.366;2022-12-15T06:31:46;-1.70;99.90
20481;DHT22;10399;50.754;3.366;2022-12-15T06:34:15;-1.70;99.90
20481;DHT22;10399;50.754;3.366;2022-12-15T06:36:43;-1.70;99.90
20481;DHT22;10399;50.754;3.366;2022-12-15T06:39:11;-1.60;99.90
20481;DHT22;10399;50.754;3.366;2022-12-15T06:41:39;-1.60;99.90
20481;DHT22;10399;50.754;3.366;2022-12-15T06:44:10;-1.30;99.90
20481;DHT22;10399;50.754;3.366;2022-12-15T06:46:38;-1.10;99.90
20481;DHT22;10399;50.754;3.366;2022-12-15T06:49:09;-1.00;99.90
20481;DHT22;10399;50.754;3.366;2022-12-15T06:51:37;-1.10;99.90
20481;DHT22;10399;50.754;3.366;2022-12-15T06:54:04;-1.30;99.90
20481;DHT22;10399;50.754;3.366;2022-12-15T06:56:33;-1.50;99.90
20481;DHT22;10399;50.754;3.366;2022-12-15T06:59:13;-1.70;99.90
20481;DHT22;10399;50.754;3.366;2022-12-15T07:01:40;-1.50;99.90
20481;DHT22;10399;50.754;3.366;2022-12-15T07:04:08;-1.40;99.90
20481;DHT22;10399;50.754;3.366;2022-12-15T07:06:38;-1.40;99.90
20481;DHT22;10399;50.754;3.366;2022-12-15T07:09:06;-1.50;99.90
20481;DHT22;10399;50.754;3.366;2022-12-15T07:11:50;-1.50;99.90
20481;DHT22;10399;50.754;3.366;2022-12-15T07:14:24;-1.60;99.90
20481;DHT22;10399;50.754;3.366;2022-12-15T07:17:11;-1.60;99.90
20481;DHT22;10399;50.754;3.366;2022-12-15T07:19:50;-1.60;99.90
20481;DHT22;10399;50.754;3.366;2022-12-15T07:22:36;-1.60;99.90
20481;DHT22;10399;50.754;3.366;2022-12-15T07:25:03;-1.50;99.90
20481;DHT22;10399;50.754;3.366;2022-12-15T07:27:34;-1.70;99.90
20481;DHT22;10399;50.754;3.366;2022-12-15T07:30:01;-1.80;99.90
20481;DHT22;10399;50.754;3.366;2022-12-15T07:32:28;-1.70;99.90
20481;DHT22;10399;50.754;3.366;2022-12-15T07:34:56;-1.80;99.90
20481;DHT22;10399;50.754;3.366;2022-12-15T07:37:23;-1.70;99.90
20481;DHT22;10399;50.754;3.366;2022-12-15T07:40:13;-1.70;99.90
20481;DHT22;10399;50.754;3.366;2022-12-15T07:43:16;-1.90;99.90
20481;DHT22;10399;50.754;3.366;2022-12-15T07:46:18;-1.90;99.90
20481;DHT22;10399;50.754;3.366;2022-12-15T07:49:15;-1.80;99.90
20481;DHT22;10399;50.754;3.366;2022-12-15T07:52:24;-1.90;99.90
20481;DHT22;10399;50.754;3.366;2022-12-15T07:54:57;-1.80;99.90
20481;DHT22;10399;50.754;3.366;2022-12-15T07:57:34;-1.80;99.90
20481;DHT22;10399;50.754;3.366;2022-12-15T08:00:05;-1.60;99.90
20481;DHT22;10399;50.754;3.366;2022-12-15T08:02:40;-1.40;99.90
20481;DHT22;10399;50.754;3.366;2022-12-15T08:05:09;-1.00;99.90
20481;DHT22;10399;50.754;3.366;2022-12-15T08:07:36;-1.20;99.90
20481;DHT22;10399;50.754;3.366;2022-12-15T08:10:09;-1.40;99.90
20481;DHT22;10399;50.754;3.366;2022-12-15T08:12:36;-1.20;99.90
20481;DHT22;10399;50.754;3.366;2022-12-15T08:15:05;-1.30;99.90
20481;DHT22;10399;50.754;3.366;2022-12-15T08:17:32;-1.30;99.90
20481;DHT22;10399;50.754;3.366;2022-12-15T08:19:59;-1.40;99.90
20481;DHT22;10399;50.754;3.366;2022-12-15T08:22:35;-1.40;99.90
20481;DHT22;10399;50.754;3.366;2022-12-15T08:25:03;-1.60;99.90
20481;DHT22;10399;50.754;3.366;2022-12-15T08:27:30;-1.40;99.90
20481;DHT22;10399;50.754;3.366;2022-12-15T08:29:57;-1.30;99.90
20481;DHT22;10399;50.754;3.366;2022-12-15T08:32:24;-1.30;99.90
20481;DHT22;10399;50.754;3.366;2022-12-15T08:34:51;-1.30;99.90
20481;DHT22;10399;50.754;3.366;2022-12-15T08:37:18;-1.20;99.90
20481;DHT22;10399;50.754;3.366;2022-12-15T08:40:01;-0.90;99.90
20481;DHT22;10399;50.754;3.366;2022-12-15T08:42:45;-0.90;99.90
20481;DHT22;10399;50.754;3.366;2022-12-15T08:45:12;-1.00;99.90
20481;DHT22;10399;50.754;3.366;2022-12-15T08:47:39;-1.10;99.90
20481;DHT22;10399;50.754;3.366;2022-12-15T08:50:14;-1.00;99.90
20481;DHT22;10399;50.754;3.366;2022-12-15T08:52:47;-0.90;99.90
20481;DHT22;10399;50.754;3.366;2022-12-15T08:55:35;-0.80;99.90
20481;DHT22;10399;50.754;3.366;2022-12-15T08:58:02;-0.90;99.90
20481;DHT22;10399;50.754;3.366;2022-12-15T09:00:29;-1.20;99.90
20481;DHT22;10399;50.754;3.366;2022-12-15T09:02:58;-1.10;99.90
20481;DHT22;10399;50.754;3.366;2022-12-15T09:05:26;-1.10;99.90
20481;DHT22;10399;50.754;3.366;2022-12-15T09:07:57;-0.90;99.90
20481;DHT22;10399;50.754;3.366;2022-12-15T09:10:32;-1.10;99.90
20481;DHT22;10399;50.754;3.366;2022-12-15T09:13:08;-1.20;99.90
20481;DHT22;10399;50.754;3.366;2022-12-15T09:15:54;-1.20;99.90
20481;DHT22;10399;50.754;3.366;2022-12-15T09:18:49;-1.20;99.90
20481;DHT22;10399;50.754;3.366;2022-12-15T09:21:32;-1.20;99.90
20481;DHT22;10399;50.754;3.366;2022-12-15T09:24:19;-1.00;99.90
20481;DHT22;10399;50.754;3.366;2022-12-15T09:27:07;-1.00;99.90
20481;DHT22;10399;50.754;3.366;2022-12-15T09:29:34;-0.90;99.90
20481;DHT22;10399;50.754;3.366;2022-12-15T09:32:02;-0.80;99.90
20481;DHT22;10399;50.754;3.366;2022-12-15T09:34:34;-0.70;99.90
20481;DHT22;10399;50.754;3.366;2022-12-15T09:37:02;-0.70;99.90
20481;DHT22;10399;50.754;3.366;2022-12-15T09:39:30;-0.90;99.90
20481;DHT22;10399;50.754;3.366;2022-12-15T09:42:30;-0.80;99.90
20481;DHT22;10399;50.754;3.366;2022-12-15T09:45:14;-0.80;99.90
20481;DHT22;10399;50.754;3.366;2022-12-15T09:47:59;-0.60;99.90
20481;DHT22;10399;50.754;3.366;2022-12-15T09:50:38;-0.50;99.90
20481;DHT22;10399;50.754;3.366;2022-12-15T09:53:11;-0.40;99.90
20481;DHT22;10399;50.754;3.366;2022-12-15T09:56:04;-0.20;99.90
20481;DHT22;10399;50.754;3.366;2022-12-15T10:01:28;0.10;99.90
20481;DHT22;10399;50.754;3.366;2022-12-15T10:08:02;0.00;99.90
20481;DHT22;10399;50.754;3.366;2022-12-15T10:14:12;0.30;99.90
20481;DHT22;10399;50.754;3.366;2022-12-15T10:20:23;0.20;99.90
20481;DHT22;10399;50.754;3.366;2022-12-15T10:22:50;0.30;99.90
20481;DHT22;10399;50.754;3.366;2022-12-15T10:25:26;0.50;99.90
20481;DHT22;10399;50.754;3.366;2022-12-15T10:28:27;0.60;99.90
20481;DHT22;10399;50.754;3.366;2022-12-15T10:31:01;0.50;99.90
20481;DHT22;10399;50.754;3.366;2022-12-15T10:33:35;0.60;99.90
20481;DHT22;10399;50.754;3.366;2022-12-15T10:36:14;0.60;99.90
20481;DHT22;10399;50.754;3.366;2022-12-15T10:38:43;0.90;99.90
20481;DHT22;10399;50.754;3.366;2022-12-15T10:41:31;1.00;99.90
20481;DHT22;10399;50.754;3.366;2022-12-15T10:44:01;0.80;99.90
20481;DHT22;10399;50.754;3.366;2022-12-15T10:46:32;0.70;99.90
20481;DHT22;10399;50.754;3.366;2022-12-15T10:51:43;0.80;99.90
20481;DHT22;10399;50.754;3.366;2022-12-15T10:54:14;0.60;99.90
20481;DHT22;10399;50.754;3.366;2022-12-15T10:56:57;0.50;99.90
20481;DHT22;10399;50.754;3.366;2022-12-15T10:59:37;0.60;99.90
20481;DHT22;10399;50.754;3.366;2022-12-15T11:05:15;0.40;99.90
20481;DHT22;10399;50.754;3.366;2022-12-15T11:10:54;0.30;99.90
20481;DHT22;10399;50.754;3.366;2022-12-15T11:14:14;0.40;99.90
20481;DHT22;10399;50.754;3.366;2022-12-15T11:16:49;0.40;99.90
20481;DHT22;10399;50.754;3.366;2022-12-15T11:19:54;0.40;99.90
20481;DHT22;10399;50.754;3.366;2022-12-15T11:25:57;0.40;99.90
20481;DHT22;10399;50.754;3.366;2022-12-15T11:28:47;0.30;99.90
20481;DHT22;10399;50.754;3.366;2022-12-15T11:31:37;0.40;99.90
20481;DHT22;10399;50.754;3.366;2022-12-15T11:34:40;0.40;99.90
20481;DHT22;10399;50.754;3.366;2022-12-15T11:48:16;2.20;99.90
20481;DHT22;10399;50.754;3.366;2022-12-15T11:51:00;2.70;99.90
20481;DHT22;10399;50.754;3.366;2022-12-15T11:54:33;3.10;99.90
20481;DHT22;10399;50.754;3.366;2022-12-15T11:56:44;3.20;99.90
20481;DHT22;10399;50.754;3.366;2022-12-15T12:02:31;3.70;99.90
20481;DHT22;10399;50.754;3.366;2022-12-15T12:07:43;4.50;99.90
20481;DHT22;10399;50.754;3.366;2022-12-15T12:15:46;5.20;99.90
20481;DHT22;10399;50.754;3.366;2022-12-15T12:18:25;5.10;99.90
20481;DHT22;10399;50.754;3.366;2022-12-15T12:21:12;5.20;99.90
20481;DHT22;10399;50.754;3.366;2022-12-15T12:26:45;5.00;99.90
20481;DHT22;10399;50.754;3.366;2022-12-15T12:29:31;5.40;99.90
20481;DHT22;10399;50.754;3.366;2022-12-15T12:32:16;5.50;99.90
20481;DHT22;10399;50.754;3.366;2022-12-15T12:34:58;5.20;99.90
20481;DHT22;10399;50.754;3.366;2022-12-15T12:37:50;5.30;99.90
20481;DHT22;10399;50.754;3.366;2022-12-15T12:42:56;5.50;99.90
20481;DHT22;10399;50.754;3.366;2022-12-15T12:45:37;5.50;99.90
20481;DHT22;10399;50.754;3.366;2022-12-15T12:51:22;5.50;99.90
20481;DHT22;10399;50.754;3.366;2022-12-15T12:53:51;5.40;99.90
20481;DHT22;10399;50.754;3.366;2022-12-15T12:56:39;5.50;99.90
20481;DHT22;10399;50.754;3.366;2022-12-15T13:18:18;6.70;99.90
20481;DHT22;10399;50.754;3.366;2022-12-15T13:20:54;6.80;99.90
20481;DHT22;10399;50.754;3.366;2022-12-15T13:44:53;7.60;99.90
20481;DHT22;10399;50.754;3.366;2022-12-15T13:47:26;7.50;99.90
20481;DHT22;10399;50.754;3.366;2022-12-15T13:50:13;7.50;99.90
20481;DHT22;10399;50.754;3.366;2022-12-15T13:52:52;7.60;99.90
20481;DHT22;10399;50.754;3.366;2022-12-15T13:58:43;6.80;99.90
20481;DHT22;10399;50.754;3.366;2022-12-15T14:01:32;6.90;99.90
20481;DHT22;10399;50.754;3.366;2022-12-15T14:04:10;6.90;99.90
20481;DHT22;10399;50.754;3.366;2022-12-15T14:09:33;6.60;99.90
20481;DHT22;10399;50.754;3.366;2022-12-15T14:12:03;6.50;99.90
20481;DHT22;10399;50.754;3.366;2022-12-15T14:14:34;6.60;99.90
20481;DHT22;10399;50.754;3.366;2022-12-15T14:17:07;6.70;99.90
20481;DHT22;10399;50.754;3.366;2022-12-15T14:19:46;6.90;99.90
20481;DHT22;10399;50.754;3.366;2022-12-15T14:22:33;6.90;99.90
20481;DHT22;10399;50.754;3.366;2022-12-15T14:25:13;7.00;99.90
20481;DHT22;10399;50.754;3.366;2022-12-15T14:27:42;7.10;99.90
20481;DHT22;10399;50.754;3.366;2022-12-15T14:30:29;7.10;99.90
20481;DHT22;10399;50.754;3.366;2022-12-15T14:33:02;7.00;99.90
20481;DHT22;10399;50.754;3.366;2022-12-15T14:35:42;6.90;99.90
20481;DHT22;10399;50.754;3.366;2022-12-15T14:40:50;7.10;99.90
20481;DHT22;10399;50.754;3.366;2022-12-15T14:43:27;7.00;99.90
20481;DHT22;10399;50.754;3.366;2022-12-15T14:46:21;7.10;99.90
20481;DHT22;10399;50.754;3.366;2022-12-15T14:49:04;6.90;99.90
20481;DHT22;10399;50.754;3.366;2022-12-15T14:51:40;6.60;99.90
20481;DHT22;10399;50.754;3.366;2022-12-15T14:54:37;6.90;99.90
20481;DHT22;10399;50.754;3.366;2022-12-15T14:59:38;6.30;99.90
20481;DHT22;10399;50.754;3.366;2022-12-15T15:07:22;5.60;99.90
20481;DHT22;10399;50.754;3.366;2022-12-15T15:09:50;5.30;99.90
20481;DHT22;10399;50.754;3.366;2022-12-15T15:12:20;5.20;99.90
20481;DHT22;10399;50.754;3.366;2022-12-15T15:17:42;5.00;99.90
20481;DHT22;10399;50.754;3.366;2022-12-15T15:20:36;5.00;99.90
20481;DHT22;10399;50.754;3.366;2022-12-15T15:25:48;4.40;99.90
20481;DHT22;10399;50.754;3.366;2022-12-15T15:33:23;3.90;99.90
20481;DHT22;10399;50.754;3.366;2022-12-15T15:35:52;4.00;99.90
20481;DHT22;10399;50.754;3.366;2022-12-15T15:38:37;3.90;99.90
20481;DHT22;10399;50.754;3.366;2022-12-15T15:43:41;3.60;99.90
20481;DHT22;10399;50.754;3.366;2022-12-15T15:46:17;3.60;99.90
20481;DHT22;10399;50.754;3.366;2022-12-15T15:48:49;3.50;99.90
20481;DHT22;10399;50.754;3.366;2022-12-15T15:51:17;3.30;99.90
20481;DHT22;10399;50.754;3.366;2022-12-15T15:53:44;3.60;99.90
20481;DHT22;10399;50.754;3.366;2022-12-15T15:56:16;3.90;99.90
20481;DHT22;10399;50.754;3.366;2022-12-15T15:58:44;3.70;99.90
20481;DHT22;10399;50.754;3.366;2022-12-15T16:01:11;3.50;99.90
20481;DHT22;10399;50.754;3.366;2022-12-15T16:03:39;3.20;99.90
20481;DHT22;10399;50.754;3.366;2022-12-15T16:06:15;3.00;99.90
20481;DHT22;10399;50.754;3.366;2022-12-15T16:08:45;3.00;99.90
20481;DHT22;10399;50.754;3.366;2022-12-15T16:11:12;2.80;99.90
20481;DHT22;10399;50.754;3.366;2022-12-15T16:13:40;2.70;99.90
20481;DHT22;10399;50.754;3.366;2022-12-15T16:16:19;2.60;99.90
20481;DHT22;10399;50.754;3.366;2022-12-15T16:18:47;2.50;99.90
20481;DHT22;10399;50.754;3.366;2022-12-15T16:21:15;2.40;99.90
20481;DHT22;10399;50.754;3.366;2022-12-15T16:23:45;2.30;99.90
20481;DHT22;10399;50.754;3.366;2022-12-15T16:26:24;2.30;99.90
20481;DHT22;10399;50.754;3.366;2022-12-15T16:28:53;2.20;99.90
20481;DHT22;10399;50.754;3.366;2022-12-15T16:34:05;2.10;99.90
20481;DHT22;10399;50.754;3.366;2022-12-15T16:36:33;2.20;99.90
20481;DHT22;10399;50.754;3.366;2022-12-15T16:39:01;2.60;99.90
20481;DHT22;10399;50.754;3.366;2022-12-15T16:41:28;2.40;99.90
20481;DHT22;10399;50.754;3.366;2022-12-15T16:43:55;2.10;99.90
20481;DHT22;10399;50.754;3.366;2022-12-15T16:46:24;2.30;99.90
20481;DHT22;10399;50.754;3.366;2022-12-15T16:48:51;2.20;99.90
20481;DHT22;10399;50.754;3.366;2022-12-15T16:51:35;2.10;99.90
20481;DHT22;10399;50.754;3.366;2022-12-15T16:54:03;2.00;99.90
20481;DHT22;10399;50.754;3.366;2022-12-15T16:56:33;2.00;99.90
20481;DHT22;10399;50.754;3.366;2022-12-15T16:59:01;2.10;99.90
20481;DHT22;10399;50.754;3.366;2022-12-15T17:01:48;1.90;99.90
20481;DHT22;10399;50.754;3.366;2022-12-15T17:04:17;1.80;99.90
20481;DHT22;10399;50.754;3.366;2022-12-15T17:06:45;1.80;99.90
20481;DHT22;10399;50.754;3.366;2022-12-15T17:09:22;1.80;99.90
20481;DHT22;10399;50.754;3.366;2022-12-15T17:11:54;1.80;99.90
20481;DHT22;10399;50.754;3.366;2022-12-15T17:14:22;1.70;99.90
20481;DHT22;10399;50.754;3.366;2022-12-15T17:16:54;1.70;99.90
20481;DHT22;10399;50.754;3.366;2022-12-15T17:19:21;1.60;99.90
20481;DHT22;10399;50.754;3.366;2022-12-15T17:21:52;1.70;99.90
20481;DHT22;10399;50.754;3.366;2022-12-15T17:24:20;1.50;99.90
20481;DHT22;10399;50.754;3.366;2022-12-15T17:26:48;1.60;99.90
20481;DHT22;10399;50.754;3.366;2022-12-15T17:29:20;1.70;99.90
20481;DHT22;10399;50.754;3.366;2022-12-15T17:31:51;1.60;99.90
20481;DHT22;10399;50.754;3.366;2022-12-15T17:34:30;1.50;99.90
20481;DHT22;10399;50.754;3.366;2022-12-15T17:37:00;1.50;99.90
20481;DHT22;10399;50.754;3.366;2022-12-15T17:39:33;1.40;99.90
20481;DHT22;10399;50.754;3.366;2022-12-15T17:42:00;1.40;99.90
20481;DHT22;10399;50.754;3.366;2022-12-15T17:44:31;1.20;99.90
20481;DHT22;10399;50.754;3.366;2022-12-15T17:47:04;1.10;99.90
20481;DHT22;10399;50.754;3.366;2022-12-15T17:49:32;1.00;99.90
20481;DHT22;10399;50.754;3.366;2022-12-15T17:52:17;1.00;99.90
20481;DHT22;10399;50.754;3.366;2022-12-15T17:54:48;1.00;99.90
20481;DHT22;10399;50.754;3.366;2022-12-15T17:57:16;1.10;99.90
20481;DHT22;10399;50.754;3.366;2022-12-15T17:59:46;0.90;99.90
20481;DHT22;10399;50.754;3.366;2022-12-15T18:02:15;1.00;99.90
20481;DHT22;10399;50.754;3.366;2022-12-15T18:04:42;0.90;99.90
20481;DHT22;10399;50.754;3.366;2022-12-15T18:07:18;0.90;99.90
20481;DHT22;10399;50.754;3.366;2022-12-15T18:09:46;0.90;99.90
20481;DHT22;10399;50.754;3.366;2022-12-15T18:12:19;1.10;99.90
20481;DHT22;10399;50.754;3.366;2022-12-15T18:14:47;1.20;99.90
20481;DHT22;10399;50.754;3.366;2022-12-15T18:17:15;1.40;99.90
20481;DHT22;10399;50.754;3.366;2022-12-15T18:19:42;1.50;99.90
20481;DHT22;10399;50.754;3.366;2022-12-15T18:22:17;1.30;99.90
20481;DHT22;10399;50.754;3.366;2022-12-15T18:24:46;1.10;99.90
20481;DHT22;10399;50.754;3.366;2022-12-15T18:27:25;1.00;99.90
20481;DHT22;10399;50.754;3.366;2022-12-15T18:29:53;0.90;99.90
20481;DHT22;10399;50.754;3.366;2022-12-15T18:32:25;0.80;99.90
20481;DHT22;10399;50.754;3.366;2022-12-15T18:34:53;0.70;99.90
20481;DHT22;10399;50.754;3.366;2022-12-15T18:37:22;0.80;99.90
20481;DHT22;10399;50.754;3.366;2022-12-15T18:39:50;0.70;99.90
20481;DHT22;10399;50.754;3.366;2022-12-15T18:42:19;0.70;99.90
20481;DHT22;10399;50.754;3.366;2022-12-15T18:44:51;0.70;99.90
20481;DHT22;10399;50.754;3.366;2022-12-15T18:47:22;0.70;99.90
20481;DHT22;10399;50.754;3.366;2022-12-15T18:49:51;0.70;99.90
20481;DHT22;10399;50.754;3.366;2022-12-15T18:52:23;0.60;99.90
20481;DHT22;10399;50.754;3.366;2022-12-15T18:54:55;0.70;99.90